Time;durP1;ratioP1;P1;durP2;ratioP2;P2;SDS_P1;SDS_P2;PMS_P1;PMS_P2;Temp;Humidity;BMP_temperature;BMP_pressure;BME280_temperature;BME280_humidity;BME280_pressure;Samples;Min_cycle;Max_cycle;Signal;HPM_P1;HPM_P2
2022/05/22 00:00:28;;;;;;;9.23;3.07;;;11.70;99.90;;;;;;5076100;28;20273;-75
2022/05/22 00:02:54;;;;;;;7.83;3.10;;;11.70;99.90;;;;;;5074799;28;20229;-75
2022/05/22 00:05:23;;;;;;;5.90;3.20;;;11.70;99.90;;;;;;5075930;28;20202;-73
2022/05/22 00:07:49;;;;;;;8.60;3.27;;;11.70;99.90;;;;;;5076269;28;20668;-75
2022/05/22 00:10:16;;;;;;;6.77;2.90;;;11.70;99.90;;;;;;5075873;28;20167;-75
2022/05/22 00:12:43;;;;;;;7.30;3.30;;;11.60;99.90;;;;;;5073794;28;20175;-75
2022/05/22 00:15:10;;;;;;;6.23;3.13;;;11.70;99.90;;;;;;5074520;28;20576;-75
2022/05/22 00:17:36;;;;;;;5.03;3.10;;;11.60;99.90;;;;;;5074560;28;20609;-77
2022/05/22 00:20:04;;;;;;;7.57;3.30;;;11.60;99.90;;;;;;5073927;28;20213;-75
2022/05/22 00:22:30;;;;;;;4.57;3.07;;;11.60;99.90;;;;;;5073942;28;20252;-74
2022/05/22 00:24:57;;;;;;;3.67;2.90;;;11.60;99.90;;;;;;5075445;28;20206;-74
2022/05/22 00:27:22;;;;;;;4.10;2.87;;;11.60;99.90;;;;;;5074280;28;20178;-74
2022/05/22 00:29:48;;;;;;;8.07;3.07;;;11.60;99.90;;;;;;5074635;28;20175;-74
2022/05/22 00:32:13;;;;;;;6.40;3.40;;;11.60;99.90;;;;;;5075514;28;20182;-74
2022/05/22 00:34:39;;;;;;;5.87;3.03;;;11.60;99.90;;;;;;5075670;28;20198;-74
2022/05/22 00:37:06;;;;;;;5.17;2.93;;;11.60;99.90;;;;;;5074136;28;20174;-75
2022/05/22 00:39:32;;;;;;;4.63;3.23;;;11.60;99.90;;;;;;5075430;28;20174;-74
2022/05/22 00:41:58;;;;;;;6.30;3.00;;;11.60;99.90;;;;;;5075209;28;20195;-75
2022/05/22 00:44:24;;;;;;;7.93;3.40;;;11.60;99.90;;;;;;5073974;28;20285;-75
2022/05/22 00:46:50;;;;;;;5.20;2.90;;;11.50;99.90;;;;;;5073168;28;20179;-75
2022/05/22 00:49:24;;;;;;;8.27;3.00;;;11.60;99.90;;;;;;5075352;28;20265;-75
2022/05/22 00:52:02;;;;;;;7.50;3.00;;;11.60;99.90;;;;;;5075217;28;20159;-75
2022/05/22 00:54:29;;;;;;;5.07;3.00;;;11.50;99.90;;;;;;5075549;28;20595;-75
2022/05/22 00:57:01;;;;;;;10.93;3.63;;;11.50;99.90;;;;;;5073781;28;20174;-75
2022/05/22 00:59:32;;;;;;;5.40;3.47;;;11.50;99.90;;;;;;5075202;28;20164;-75
2022/05/22 01:01:59;;;;;;;5.10;3.20;;;11.50;99.90;;;;;;5073658;28;20198;-74
2022/05/22 01:04:28;;;;;;;5.10;3.00;;;11.40;99.90;;;;;;5072650;28;20666;-75
2022/05/22 01:06:54;;;;;;;6.60;3.17;;;11.40;99.90;;;;;;5074849;28;20167;-75
2022/05/22 01:09:20;;;;;;;7.30;3.50;;;11.40;99.90;;;;;;5074793;28;20177;-75
2022/05/22 01:11:50;;;;;;;6.53;3.13;;;11.40;99.90;;;;;;5074656;28;20201;-74
2022/05/22 01:14:22;;;;;;;5.07;2.97;;;11.40;99.90;;;;;;5074625;28;20220;-74
2022/05/22 01:16:51;;;;;;;9.47;3.10;;;11.40;99.90;;;;;;5073426;28;20205;-74
2022/05/22 01:19:21;;;;;;;5.60;3.20;;;11.40;99.90;;;;;;5071835;28;20269;-75
2022/05/22 01:21:59;;;;;;;4.60;3.00;;;11.40;99.90;;;;;;5074767;28;20213;-75
2022/05/22 01:24:25;;;;;;;4.53;2.63;;;11.40;99.90;;;;;;5073000;28;20233;-75
2022/05/22 01:26:54;;;;;;;5.60;3.00;;;11.40;99.90;;;;;;5074485;28;20183;-75
2022/05/22 01:29:20;;;;;;;5.13;2.87;;;11.40;99.90;;;;;;5071413;28;20167;-75
2022/05/22 01:31:45;;;;;;;5.67;2.90;;;11.40;99.90;;;;;;5072900;28;20182;-74
2022/05/22 01:34:11;;;;;;;5.93;3.00;;;11.40;99.90;;;;;;5072930;28;20175;-74
2022/05/22 01:36:37;;;;;;;6.80;3.53;;;11.30;99.90;;;;;;5074243;28;20641;-74
2022/05/22 01:39:04;;;;;;;6.67;3.17;;;11.30;99.90;;;;;;5071992;28;20168;-74
2022/05/22 01:41:29;;;;;;;4.17;2.83;;;11.30;99.90;;;;;;5072686;28;20214;-74
2022/05/22 01:43:55;;;;;;;10.33;3.40;;;11.30;99.90;;;;;;5074059;28;20167;-75
2022/05/22 01:46:20;;;;;;;5.80;3.40;;;11.30;99.90;;;;;;5072733;28;20183;-74
2022/05/22 01:48:46;;;;;;;7.73;3.30;;;11.30;99.90;;;;;;5072764;28;20182;-74
2022/05/22 01:51:11;;;;;;;8.03;3.67;;;11.30;99.90;;;;;;5072645;28;20175;-75
2022/05/22 01:53:37;;;;;;;7.97;3.67;;;11.30;99.90;;;;;;5074442;28;20185;-74
2022/05/22 01:56:03;;;;;;;8.47;3.33;;;11.30;99.90;;;;;;5071677;28;20194;-74
2022/05/22 01:58:28;;;;;;;8.37;3.00;;;11.20;99.90;;;;;;5072639;28;20262;-75
2022/05/22 02:00:54;;;;;;;4.37;3.03;;;11.20;99.90;;;;;;5073815;28;20584;-74
2022/05/22 02:03:20;;;;;;;8.00;3.20;;;11.20;99.90;;;;;;5073696;28;20174;-74
2022/05/22 02:05:46;;;;;;;7.67;3.80;;;11.20;99.90;;;;;;5073917;28;20202;-74
2022/05/22 02:08:24;;;;;;;5.87;3.07;;;11.20;99.90;;;;;;5072363;28;20197;-75
2022/05/22 02:10:56;;;;;;;3.93;3.27;;;11.10;99.90;;;;;;5073827;28;20589;-74
2022/05/22 02:13:25;;;;;;;5.43;2.93;;;11.10;99.90;;;;;;5071374;28;20177;-74
2022/05/22 02:15:52;;;;;;;4.33;2.87;;;11.10;99.90;;;;;;5073356;28;20728;-74
2022/05/22 02:18:18;;;;;;;8.27;2.87;;;11.10;99.90;;;;;;5072158;28;20175;-74
2022/05/22 02:20:44;;;;;;;11.80;3.23;;;11.10;99.90;;;;;;5072148;28;20182;-74
2022/05/22 02:23:09;;;;;;;6.77;2.93;;;11.10;99.90;;;;;;5072124;28;20178;-75
2022/05/22 02:25:37;;;;;;;3.73;3.33;;;11.10;99.90;;;;;;5073163;28;20263;-75
2022/05/22 02:28:05;;;;;;;4.57;2.87;;;11.00;99.90;;;;;;5072138;28;20175;-74
2022/05/22 02:30:33;;;;;;;4.50;3.20;;;11.00;99.90;;;;;;5072458;28;20276;-74
2022/05/22 02:32:59;;;;;;;9.90;3.53;;;11.00;99.90;;;;;;5071977;28;20175;-74
2022/05/22 02:35:25;;;;;;;5.13;3.30;;;11.00;99.90;;;;;;5073292;28;20191;-74
2022/05/22 02:37:55;;;;;;;11.93;3.40;;;10.90;99.90;;;;;;5071948;28;20178;-74
2022/05/22 02:40:24;;;;;;;5.07;3.33;;;10.90;99.90;;;;;;5073408;28;20198;-74
2022/05/22 02:42:51;;;;;;;5.23;3.00;;;10.90;99.90;;;;;;5072347;28;20218;-75
2022/05/22 02:45:22;;;;;;;5.30;3.23;;;10.90;99.90;;;;;;5071419;28;20214;-74
2022/05/22 02:47:48;;;;;;;5.80;3.70;;;10.80;99.90;;;;;;5073138;28;20706;-74
2022/05/22 02:50:16;;;;;;;10.60;3.30;;;10.80;99.90;;;;;;5073064;28;20195;-74
2022/05/22 02:52:42;;;;;;;8.33;3.90;;;10.80;99.90;;;;;;5073065;28;20585;-74
2022/05/22 02:55:08;;;;;;;5.77;3.60;;;10.80;99.90;;;;;;5072949;28;20221;-74
2022/05/22 02:57:35;;;;;;;12.10;4.27;;;10.70;99.90;;;;;;5073216;28;20183;-74
2022/05/22 03:00:02;;;;;;;8.40;3.17;;;10.80;99.90;;;;;;5071724;28;20213;-74
2022/05/22 03:02:27;;;;;;;8.97;3.60;;;10.70;99.90;;;;;;5071542;28;20198;-75
2022/05/22 03:04:53;;;;;;;9.73;3.67;;;10.70;99.90;;;;;;5071559;28;20251;-75
2022/05/22 03:07:20;;;;;;;4.20;2.93;;;10.70;99.90;;;;;;5072859;28;20163;-73
2022/05/22 03:09:47;;;;;;;6.83;3.53;;;10.70;99.90;;;;;;5071741;28;20182;-74
2022/05/22 03:12:16;;;;;;;6.27;3.53;;;10.70;99.90;;;;;;5072852;28;20182;-74
2022/05/22 03:14:46;;;;;;;6.07;3.57;;;10.60;99.90;;;;;;5071886;28;20190;-74
2022/05/22 03:17:11;;;;;;;6.27;3.63;;;10.60;99.90;;;;;;5072838;28;20155;-74
2022/05/22 03:19:37;;;;;;;8.33;3.40;;;10.60;99.90;;;;;;5071866;28;20174;-74
2022/05/22 03:22:04;;;;;;;9.33;3.73;;;10.50;99.90;;;;;;5070696;28;20199;-74
2022/05/22 03:24:29;;;;;;;5.40;3.53;;;10.50;99.90;;;;;;5070449;28;20294;-74
2022/05/22 03:26:55;;;;;;;7.93;3.20;;;10.50;99.90;;;;;;5073329;28;20239;-75
2022/05/22 03:29:21;;;;;;;7.07;3.90;;;10.50;99.90;;;;;;5071398;28;20171;-74
2022/05/22 03:31:46;;;;;;;6.57;3.93;;;10.60;99.90;;;;;;5071358;28;20175;-74
2022/05/22 03:34:12;;;;;;;7.80;3.40;;;10.60;99.90;;;;;;5071251;28;20177;-74
2022/05/22 03:36:41;;;;;;;6.67;3.50;;;10.60;99.90;;;;;;5072849;28;20167;-74
2022/05/22 03:39:07;;;;;;;9.33;2.90;;;10.60;99.90;;;;;;5070552;28;20210;-74
2022/05/22 03:41:35;;;;;;;7.07;3.20;;;10.50;99.90;;;;;;5072411;28;20226;-74
2022/05/22 03:44:01;;;;;;;5.83;3.03;;;10.50;99.90;;;;;;5072508;28;20169;-74
2022/05/22 03:46:27;;;;;;;9.23;3.70;;;10.50;99.90;;;;;;5072900;28;20171;-74
2022/05/22 03:48:53;;;;;;;8.27;3.67;;;10.50;99.90;;;;;;5072592;28;20586;-74
2022/05/22 03:51:18;;;;;;;6.67;3.20;;;10.50;99.90;;;;;;5072562;28;20250;-74
2022/05/22 03:53:44;;;;;;;5.83;3.37;;;10.40;99.90;;;;;;5072715;28;20258;-74
2022/05/22 03:56:15;;;;;;;6.07;3.20;;;10.40;99.90;;;;;;5073822;28;20676;-74
2022/05/22 03:58:41;;;;;;;6.23;3.50;;;10.30;99.90;;;;;;5076194;28;20649;-74
2022/05/22 04:01:07;;;;;;;11.73;4.13;;;10.30;99.90;;;;;;5076171;28;20293;-74
2022/05/22 04:03:36;;;;;;;7.20;3.40;;;10.30;99.90;;;;;;5076133;28;20256;-73
2022/05/22 04:06:03;;;;;;;8.07;3.70;;;10.30;99.90;;;;;;5076211;28;20328;-74
2022/05/22 04:08:30;;;;;;;6.10;3.80;;;10.30;99.90;;;;;;5074691;28;20177;-74
2022/05/22 04:10:56;;;;;;;5.90;3.80;;;10.20;99.90;;;;;;5076051;28;20167;-74
2022/05/22 04:13:24;;;;;;;6.50;3.70;;;10.30;99.90;;;;;;5073721;28;20197;-74
2022/05/22 04:15:49;;;;;;;5.70;3.43;;;10.30;99.90;;;;;;5075586;28;20207;-74
2022/05/22 04:18:15;;;;;;;5.40;3.47;;;10.30;99.90;;;;;;5074484;28;20656;-74
2022/05/22 04:20:41;;;;;;;6.80;3.80;;;10.30;99.90;;;;;;5075556;28;20209;-73
2022/05/22 04:25:55;;;;;;;6.13;3.50;;;10.40;99.90;;;;;;5075382;28;20218;-76
2022/05/22 04:28:22;;;;;;;5.87;3.30;;;10.40;99.90;;;;;;5075460;28;20171;-74
2022/05/22 04:30:48;;;;;;;4.73;3.47;;;10.40;99.90;;;;;;5099587;22;20225;-74
2022/05/22 04:33:13;;;;;;;5.07;3.20;;;10.40;99.90;;;;;;5073933;28;20568;-77
2022/05/22 04:35:39;;;;;;;6.17;3.87;;;10.40;99.90;;;;;;5075360;28;20194;-75
2022/05/22 04:38:05;;;;;;;4.87;3.27;;;10.50;99.90;;;;;;5075424;28;20195;-75
2022/05/22 04:40:30;;;;;;;6.97;3.70;;;10.50;99.90;;;;;;5075610;28;20210;-74
2022/05/22 04:42:56;;;;;;;9.43;3.97;;;10.50;99.90;;;;;;5075520;28;20202;-75
2022/05/22 04:45:22;;;;;;;7.77;4.20;;;10.50;99.90;;;;;;5074440;28;20220;-76
2022/05/22 04:47:47;;;;;;;4.90;3.67;;;10.50;99.90;;;;;;5073908;28;20683;-76
2022/05/22 04:50:14;;;;;;;9.40;3.50;;;10.50;99.90;;;;;;5075155;28;20167;-76
2022/05/22 04:52:40;;;;;;;5.53;3.23;;;10.60;99.90;;;;;;5074873;28;20195;-76
2022/05/22 04:55:07;;;;;;;4.13;3.33;;;10.60;99.90;;;;;;5075228;28;20228;-75
2022/05/22 04:57:32;;;;;;;8.03;4.10;;;10.70;99.90;;;;;;5073576;28;20178;-76
2022/05/22 04:59:58;;;;;;;7.43;3.87;;;10.70;99.90;;;;;;5075086;28;20171;-76
2022/05/22 05:02:24;;;;;;;5.60;3.53;;;10.70;99.90;;;;;;5073618;28;20206;-76
2022/05/22 05:04:56;;;;;;;7.83;3.73;;;10.80;99.90;;;;;;5074051;28;20175;-76
2022/05/22 05:07:22;;;;;;;4.60;3.27;;;10.80;99.90;;;;;;5075678;28;20170;-75
2022/05/22 05:09:48;;;;;;;9.07;3.97;;;10.90;99.90;;;;;;5081018;28;20167;-75
2022/05/22 05:12:14;;;;;;;4.33;3.17;;;10.90;99.90;;;;;;5080730;28;20574;-75
2022/05/22 05:14:40;;;;;;;5.37;3.30;;;11.00;99.90;;;;;;5074136;28;20270;-75
2022/05/22 05:17:10;;;;;;;6.17;3.87;;;11.00;99.90;;;;;;5074316;28;20194;-75
2022/05/22 05:19:35;;;;;;;5.93;3.27;;;11.00;99.90;;;;;;5073146;28;20206;-76
2022/05/22 05:22:01;;;;;;;5.33;3.23;;;11.10;99.90;;;;;;5074383;28;20237;-75
2022/05/22 05:24:28;;;;;;;7.03;4.10;;;11.20;99.90;;;;;;5074425;28;20543;-75
2022/05/22 05:26:55;;;;;;;11.37;3.50;;;11.20;99.90;;;;;;5074413;28;20257;-75
2022/05/22 05:29:21;;;;;;;5.80;3.37;;;11.30;99.90;;;;;;5074357;28;20174;-76
2022/05/22 05:31:47;;;;;;;4.70;3.07;;;11.30;99.90;;;;;;5072931;28;20661;-75
2022/05/22 05:34:13;;;;;;;5.30;3.30;;;11.40;99.90;;;;;;5073048;28;20174;-76
2022/05/22 05:36:39;;;;;;;5.20;3.13;;;11.40;99.90;;;;;;5072909;28;20652;-76
2022/05/22 05:39:07;;;;;;;5.07;3.47;;;11.50;99.90;;;;;;5072878;28;20175;-76
2022/05/22 05:41:35;;;;;;;3.97;2.90;;;11.50;99.90;;;;;;5072969;28;20573;-75
2022/05/22 05:44:05;;;;;;;4.83;2.80;;;11.50;99.90;;;;;;5072870;28;20210;-76
2022/05/22 05:46:35;;;;;;;7.47;3.80;;;11.60;99.90;;;;;;5075083;28;20216;-75
2022/05/22 05:49:01;;;;;;;8.37;4.30;;;11.70;99.90;;;;;;5072734;28;20176;-76
2022/05/22 05:51:27;;;;;;;7.33;4.07;;;11.70;99.90;;;;;;5072478;28;20206;-75
2022/05/22 05:53:53;;;;;;;6.03;4.37;;;11.80;99.90;;;;;;5073870;28;20529;-75
2022/05/22 05:56:18;;;;;;;9.37;4.57;;;11.80;99.90;;;;;;5073844;28;20174;-75
2022/05/22 05:58:44;;;;;;;9.93;4.77;;;12.00;99.90;;;;;;5073813;28;20205;-74
2022/05/22 06:01:11;;;;;;;9.77;4.73;;;12.00;99.90;;;;;;5073514;28;20202;-75
2022/05/22 06:03:36;;;;;;;15.60;5.13;;;12.00;99.90;;;;;;5073620;28;20175;-75
2022/05/22 06:06:06;;;;;;;6.73;4.80;;;12.20;99.90;;;;;;5073605;28;20170;-74
2022/05/22 06:08:31;;;;;;;11.70;5.77;;;12.20;99.90;;;;;;5072337;28;20167;-75
2022/05/22 06:10:58;;;;;;;13.87;5.80;;;12.30;99.90;;;;;;5072217;28;20225;-75
2022/05/22 06:13:24;;;;;;;10.73;5.87;;;12.40;99.90;;;;;;5073502;28;20163;-75
2022/05/22 06:15:50;;;;;;;10.10;5.60;;;12.50;99.90;;;;;;5073712;28;20166;-73
2022/05/22 06:18:15;;;;;;;12.67;5.30;;;12.60;99.90;;;;;;5072954;28;20171;-75
2022/05/22 06:20:41;;;;;;;7.87;5.33;;;12.70;99.90;;;;;;5073212;28;20178;-75
2022/05/22 06:23:06;;;;;;;10.57;5.10;;;12.80;99.90;;;;;;5071996;28;20199;-76
2022/05/22 06:25:33;;;;;;;11.17;4.57;;;12.90;99.90;;;;;;5073448;28;20544;-75
2022/05/22 06:27:58;;;;;;;8.43;4.60;;;13.00;99.90;;;;;;5073774;28;20557;-75
2022/05/22 06:30:24;;;;;;;11.80;4.77;;;13.10;99.90;;;;;;5073368;28;20198;-75
2022/05/22 06:32:50;;;;;;;10.73;4.67;;;13.10;99.90;;;;;;5073121;28;20221;-75
2022/05/22 06:35:16;;;;;;;6.10;3.90;;;13.20;99.90;;;;;;5073263;28;20559;-76
2022/05/22 06:37:42;;;;;;;10.57;3.97;;;13.30;99.90;;;;;;5072071;28;20186;-75
2022/05/22 06:40:09;;;;;;;11.50;4.33;;;13.40;99.90;;;;;;5073086;28;20166;-75
2022/05/22 06:42:44;;;;;;;8.27;3.73;;;13.50;99.90;;;;;;5071686;28;20624;-75
2022/05/22 06:45:15;;;;;;;12.33;4.27;;;13.60;99.90;;;;;;5072985;28;20170;-75
2022/05/22 06:47:42;;;;;;;8.83;3.43;;;13.70;99.90;;;;;;5073044;28;20186;-75
2022/05/22 06:50:11;;;;;;;8.13;3.30;;;13.80;99.90;;;;;;5072941;28;20171;-76
2022/05/22 06:52:38;;;;;;;9.47;4.20;;;13.90;99.90;;;;;;5072884;28;20727;-76
2022/05/22 06:55:05;;;;;;;8.57;3.57;;;13.90;99.90;;;;;;5071530;28;20167;-76
2022/05/22 06:57:31;;;;;;;12.03;4.27;;;14.00;99.90;;;;;;5073075;28;20167;-76
2022/05/22 06:59:59;;;;;;;11.60;4.60;;;14.10;99.90;;;;;;5074093;28;20258;-77
2022/05/22 07:02:29;;;;;;;11.10;4.00;;;14.20;99.90;;;;;;5074129;28;20822;-78
2022/05/22 07:04:59;;;;;;;11.27;3.60;;;14.30;99.90;;;;;;5074454;28;20170;-78
2022/05/22 07:07:25;;;;;;;6.83;3.40;;;14.30;99.90;;;;;;5073551;28;20182;-76
2022/05/22 07:09:51;;;;;;;10.13;3.60;;;14.40;99.90;;;;;;5072719;28;20559;-76
2022/05/22 07:12:18;;;;;;;12.17;4.23;;;14.50;99.90;;;;;;5071460;28;20198;-77
2022/05/22 07:14:44;;;;;;;7.90;2.90;;;14.60;99.90;;;;;;5073313;28;20170;-76
2022/05/22 07:17:12;;;;;;;10.73;3.37;;;14.70;99.90;;;;;;5071567;28;20189;-77
2022/05/22 07:19:38;;;;;;;6.07;2.50;;;14.70;99.90;;;;;;5073184;28;20178;-77
2022/05/22 07:22:07;;;;;;;4.77;2.50;;;14.80;99.90;;;;;;5071272;28;20202;-76
2022/05/22 07:24:34;;;;;;;10.70;2.97;;;15.00;99.90;;;;;;5073262;28;20670;-77
2022/05/22 07:27:00;;;;;;;7.43;2.60;;;15.10;99.90;;;;;;5074205;28;20171;-78
2022/05/22 07:29:25;;;;;;;8.50;2.63;;;15.20;99.90;;;;;;5071703;28;20171;-76
2022/05/22 07:31:51;;;;;;;8.73;2.70;;;15.30;99.90;;;;;;5076597;28;20218;-77
2022/05/22 07:34:17;;;;;;;7.67;2.53;;;15.40;99.90;;;;;;5075389;28;20182;-77
2022/05/22 07:36:42;;;;;;;5.97;2.50;;;15.60;1.00;;;;;;5075416;28;20175;-76
2022/05/22 07:39:08;;;;;;;8.10;2.60;;;15.60;1.00;;;;;;5075819;28;20167;-77
2022/05/22 07:41:35;;;;;;;6.87;2.73;;;15.70;1.00;;;;;;5076870;28;20245;-77
2022/05/22 07:44:00;;;;;;;8.27;3.20;;;15.80;99.90;;;;;;5076624;28;20174;-77
2022/05/22 07:46:26;;;;;;;7.60;3.40;;;15.90;99.90;;;;;;5076436;28;20166;-77
2022/05/22 07:48:52;;;;;;;9.13;3.10;;;16.00;99.90;;;;;;5075188;28;20691;-76
2022/05/22 07:51:18;;;;;;;7.80;3.03;;;16.10;99.90;;;;;;5076247;28;20615;-76
2022/05/22 07:53:44;;;;;;;9.63;3.40;;;16.20;89.00;;;;;;5076268;28;20217;-76
2022/05/22 07:56:12;;;;;;;4.57;2.57;;;16.20;1.00;;;;;;5076183;28;20171;-77
2022/05/22 07:58:39;;;;;;;12.07;3.40;;;16.30;1.00;;;;;;5076128;28;20167;-77
2022/05/22 08:01:05;;;;;;;8.60;2.90;;;16.40;1.00;;;;;;5076141;28;20222;-76
2022/05/22 08:03:32;;;;;;;5.70;3.07;;;16.40;96.30;;;;;;5074760;28;20629;-76
2022/05/22 08:05:58;;;;;;;9.53;3.57;;;16.50;1.00;;;;;;5074600;28;20258;-77
2022/05/22 08:08:24;;;;;;;11.87;4.00;;;16.60;1.00;;;;;;5075853;28;20199;-76
2022/05/22 08:10:51;;;;;;;9.70;3.77;;;16.70;99.90;;;;;;5074534;28;20171;-77
2022/05/22 08:13:16;;;;;;;8.77;3.70;;;16.70;1.00;;;;;;5075901;28;20296;-76
2022/05/22 08:15:42;;;;;;;7.07;3.47;;;16.90;1.00;;;;;;5075957;28;20245;-75
2022/05/22 08:18:09;;;;;;;10.47;3.60;;;16.90;99.90;;;;;;5075965;28;20175;-76
2022/05/22 08:20:36;;;;;;;9.27;3.73;;;17.00;1.00;;;;;;5075569;28;20186;-76
2022/05/22 08:23:08;;;;;;;8.90;3.97;;;17.00;99.90;;;;;;5075435;28;20340;-76
2022/05/22 08:25:33;;;;;;;10.00;3.33;;;17.00;99.90;;;;;;5074324;28;20163;-76
2022/05/22 08:28:00;;;;;;;12.63;3.87;;;17.00;99.90;;;;;;5075505;28;20352;-76
2022/05/22 08:30:28;;;;;;;12.03;3.20;;;17.00;1.00;;;;;;5074023;28;20667;-75
2022/05/22 08:32:54;;;;;;;7.63;3.53;;;17.10;1.00;;;;;;5075250;28;20272;-76
2022/05/22 08:35:24;;;;;;;10.50;3.47;;;17.10;25.80;;;;;;5075613;28;20200;-77
2022/05/22 08:37:50;;;;;;;6.00;3.10;;;17.10;1.00;;;;;;5075763;28;20655;-76
2022/05/22 08:40:17;;;;;;;10.97;3.33;;;17.20;1.00;;;;;;5074067;28;20177;-76
2022/05/22 08:42:50;;;;;;;10.43;3.80;;;17.20;1.00;;;;;;5074298;28;20207;-74
2022/05/22 08:45:43;;;;;;;9.10;3.23;;;17.20;1.00;;;;;;5075526;28;20216;-76
2022/05/22 08:48:14;;;;;;;11.20;3.47;;;17.30;1.00;;;;;;5074396;28;20611;-75
2022/05/22 08:50:43;;;;;;;7.67;3.13;;;17.30;1.00;;;;;;5073861;28;20178;-76
2022/05/22 08:53:23;;;;;;;10.40;3.80;;;17.30;31.70;;;;;;5074331;28;20206;-77
2022/05/22 08:58:58;;;;;;;8.57;2.80;;;17.40;1.00;;;;;;5075296;28;20162;-78
2022/05/22 09:01:34;;;;;;;9.33;3.50;;;17.40;99.90;;;;;;5074324;28;20293;-77
2022/05/22 09:04:15;;;;;;;8.83;2.80;;;17.40;1.00;;;;;;5073802;28;20279;-77
2022/05/22 09:06:46;;;;;;;11.53;3.80;;;17.40;99.90;;;;;;5075508;28;20159;-77
2022/05/22 09:09:12;;;;;;;8.73;3.23;;;17.30;99.90;;;;;;5075178;28;20162;-77
2022/05/22 09:11:45;;;;;;;7.70;2.97;;;17.30;1.50;;;;;;5074794;28;20688;-77
2022/05/22 09:14:26;;;;;;;9.17;2.70;;;17.30;77.80;;;;;;5074980;28;20198;-77
2022/05/22 09:17:04;;;;;;;7.83;3.30;;;17.40;99.90;;;;;;5075044;28;20161;-77
2022/05/22 09:19:55;;;;;;;6.27;3.03;;;17.40;1.00;;;;;;5074756;28;20152;-76
2022/05/22 09:22:38;;;;;;;9.30;3.77;;;17.40;58.90;;;;;;5074870;28;20684;-76
2022/05/22 09:25:32;;;;;;;8.23;2.40;;;17.50;99.90;;;;;;5074750;28;20147;-77
2022/05/22 09:28:05;;;;;;;10.93;3.00;;;17.60;1.00;;;;;;5074571;28;20156;-77
2022/05/22 09:30:58;;;;;;;12.00;3.57;;;17.60;1.00;;;;;;5074787;28;20566;-75
2022/05/22 09:33:46;;;;;;;8.50;3.40;;;17.50;1.00;;;;;;5074562;28;20163;-76
2022/05/22 09:36:32;;;;;;;7.97;3.10;;;17.60;24.00;;;;;;5072962;28;20167;-75
2022/05/22 09:39:25;;;;;;;10.27;3.23;;;17.50;99.90;;;;;;5072956;28;20174;-76
2022/05/22 09:42:00;;;;;;;9.20;3.67;;;17.60;99.90;;;;;;5074160;28;20203;-76
2022/05/22 09:44:50;;;;;;;9.93;3.43;;;17.60;1.00;;;;;;5074358;28;20163;-76
2022/05/22 09:47:41;;;;;;;8.80;2.87;;;17.60;1.00;;;;;;5074007;28;20242;-76
2022/05/22 09:50:24;;;;;;;5.60;2.93;;;17.70;1.00;;;;;;5057355;28;20228;-76
2022/05/22 09:52:58;;;;;;;11.20;3.67;;;17.70;1.00;;;;;;5072396;28;20240;-76
2022/05/22 09:55:45;;;;;;;4.97;2.67;;;17.80;99.90;;;;;;5072489;28;20170;-76
2022/05/22 09:58:48;;;;;;;8.93;2.80;;;17.90;90.70;;;;;;5073840;28;20505;-76
2022/05/22 10:01:31;;;;;;;11.73;3.37;;;17.90;1.00;;;;;;5073626;28;20209;-76
2022/05/22 10:03:59;;;;;;;8.90;3.47;;;17.90;1.00;;;;;;5073790;28;20686;-76
2022/05/22 10:06:50;;;;;;;7.97;3.80;;;17.80;1.00;;;;;;5073843;28;20174;-75
2022/05/22 10:09:32;;;;;;;8.57;3.77;;;17.90;1.00;;;;;;5072276;28;20235;-76
2022/05/22 10:12:10;;;;;;;5.30;3.13;;;17.90;99.90;;;;;;5073507;28;20187;-75
2022/05/22 10:14:53;;;;;;;7.70;3.10;;;17.90;99.90;;;;;;5073730;28;20166;-75
2022/05/22 10:17:27;;;;;;;12.17;3.70;;;18.10;80.00;;;;;;5073511;28;20163;-76
2022/05/22 10:20:07;;;;;;;5.50;3.20;;;18.10;99.90;;;;;;5073559;28;20224;-75
2022/05/22 10:22:54;;;;;;;9.43;3.53;;;18.30;1.00;;;;;;5072000;28;20207;-75
2022/05/22 10:25:43;;;;;;;8.20;3.27;;;18.50;8.80;;;;;;5072089;28;20174;-75
2022/05/22 10:28:19;;;;;;;10.50;3.70;;;18.60;1.00;;;;;;5073254;28;20159;-74
2022/05/22 10:30:50;;;;;;;8.67;4.00;;;18.80;99.90;;;;;;5073067;28;20178;-74
2022/05/22 10:33:28;;;;;;;9.93;3.13;;;18.80;99.90;;;;;;5098862;22;20222;-76
2022/05/22 10:35:59;;;;;;;11.97;3.83;;;18.90;99.90;;;;;;5073452;28;20155;-75
2022/05/22 10:38:39;;;;;;;7.13;3.17;;;19.00;1.00;;;;;;5073221;28;20147;-74
2022/05/22 10:44:10;;;;;;;9.20;3.63;;;19.10;1.00;;;;;;5053652;28;20201;-75
2022/05/22 10:46:51;;;;;;;10.33;3.80;;;19.20;1.00;;;;;;5064016;28;20637;-76
2022/05/22 10:49:18;;;;;;;10.03;3.50;;;19.30;1.00;;;;;;5073217;28;20228;-75
2022/05/22 10:51:58;;;;;;;6.87;3.07;;;19.30;1.00;;;;;;5073163;28;20191;-74
2022/05/22 10:54:29;;;;;;;11.77;3.23;;;19.40;1.00;;;;;;5071949;28;20209;-75
2022/05/22 10:57:06;;;;;;;8.07;2.87;;;19.50;99.90;;;;;;5071933;28;20177;-74
2022/05/22 10:59:32;;;;;;;6.60;3.47;;;19.60;99.90;;;;;;5073455;28;20174;-76
2022/05/22 11:02:03;;;;;;;8.43;3.10;;;19.50;1.00;;;;;;5069035;28;20229;-77
2022/05/22 11:04:43;;;;;;;7.57;2.87;;;19.40;8.30;;;;;;5070260;28;20175;-75
2022/05/22 11:07:10;;;;;;;5.97;2.60;;;19.40;99.90;;;;;;5073040;28;20297;-75
2022/05/22 11:09:49;;;;;;;7.90;2.30;;;19.40;1.00;;;;;;5072985;28;20167;-75
2022/05/22 11:12:24;;;;;;;6.50;2.73;;;19.40;99.90;;;;;;5068107;28;20577;-77
2022/05/22 11:14:49;;;;;;;7.47;2.80;;;19.40;1.00;;;;;;5073208;28;20185;-75
2022/05/22 11:17:20;;;;;;;8.23;2.70;;;19.40;1.00;;;;;;5071646;28;20171;-76
2022/05/22 11:19:49;;;;;;;6.47;2.63;;;19.40;1.00;;;;;;5072936;28;20155;-74
2022/05/22 11:22:35;;;;;;;10.27;2.70;;;19.40;1.00;;;;;;5072613;28;20202;-73
2022/05/22 11:25:22;;;;;;;8.30;2.97;;;19.50;51.80;;;;;;5070153;28;20179;-74
2022/05/22 11:27:59;;;;;;;7.47;3.40;;;19.60;99.90;;;;;;5072863;28;20533;-74
2022/05/22 11:30:37;;;;;;;9.10;3.40;;;19.70;56.00;;;;;;5071479;28;20598;-73
2022/05/22 11:33:25;;;;;;;8.17;3.03;;;19.70;1.00;;;;;;5072617;28;20635;-74
2022/05/22 11:36:15;;;;;;;5.57;2.77;;;19.70;25.20;;;;;;5072795;28;20155;-75
2022/05/22 11:38:59;;;;;;;9.90;2.80;;;19.60;99.90;;;;;;5072677;28;20262;-74
2022/05/22 11:41:47;;;;;;;10.47;3.13;;;19.60;99.90;;;;;;5071264;28;20604;-74
2022/05/22 11:44:50;;;;;;;9.33;3.30;;;19.70;1.00;;;;;;5045778;28;20238;-74
2022/05/22 11:47:52;;;;;;;8.37;2.80;;;19.60;1.00;;;;;;5032905;28;20175;-74
2022/05/22 11:50:46;;;;;;;8.83;3.10;;;19.60;6.40;;;;;;5039277;28;20183;-75
2022/05/22 11:53:15;;;;;;;8.37;2.70;;;19.60;1.00;;;;;;5032531;28;20192;-76
2022/05/22 11:55:58;;;;;;;7.23;2.70;;;19.60;1.00;;;;;;5032840;28;20662;-75
2022/05/22 11:58:36;;;;;;;6.87;3.00;;;19.60;1.00;;;;;;5031342;28;20481;-75
2022/05/22 12:01:22;;;;;;;8.93;2.87;;;19.60;1.00;;;;;;5031217;28;20172;-75
2022/05/22 12:03:53;;;;;;;7.23;2.77;;;19.60;1.00;;;;;;5031262;28;20223;-75
2022/05/22 12:06:56;;;;;;;10.97;3.13;;;19.80;1.00;;;;;;5032768;28;20176;-75
2022/05/22 12:09:36;;;;;;;6.13;3.03;;;19.90;99.90;;;;;;5031170;28;20250;-75
2022/05/22 12:12:49;;;;;;;6.43;3.20;;;20.10;1.00;;;;;;5032492;28;20569;-75
2022/05/22 12:15:46;;;;;;;7.23;2.77;;;20.10;1.00;;;;;;5032669;28;20610;-75
2022/05/22 12:18:38;;;;;;;6.13;2.70;;;20.30;80.80;;;;;;5033146;28;20184;-76
2022/05/22 12:21:43;;;;;;;7.83;2.70;;;20.40;52.60;;;;;;5035838;28;20552;-76
2022/05/22 12:24:40;;;;;;;5.30;2.30;;;20.50;1.00;;;;;;5034635;28;20174;-76
2022/05/22 12:27:19;;;;;;;5.60;2.20;;;20.60;1.00;;;;;;5034503;28;20165;-76
2022/05/22 12:30:16;;;;;;;5.90;2.70;;;20.70;1.00;;;;;;5035729;28;20156;-76
2022/05/22 12:32:56;;;;;;;7.67;2.20;;;20.80;99.90;;;;;;5035597;28;20208;-75
2022/05/22 12:35:24;;;;;;;6.40;2.37;;;20.80;99.90;;;;;;5035644;28;20635;-75
2022/05/22 12:37:54;;;;;;;7.70;2.93;;;20.70;99.90;;;;;;5034384;28;20254;-76
2022/05/22 12:40:37;;;;;;;4.67;2.23;;;20.60;1.00;;;;;;5035687;28;20177;-76
2022/05/22 12:43:05;;;;;;;7.83;2.30;;;20.50;99.90;;;;;;5035221;28;20210;-76
2022/05/22 12:45:31;;;;;;;7.77;2.43;;;20.50;1.00;;;;;;5035455;28;20173;-75
2022/05/22 12:48:24;;;;;;;4.73;2.60;;;20.40;1.00;;;;;;5035366;28;20172;-76
2022/05/22 12:50:52;;;;;;;4.23;2.33;;;20.40;1.00;;;;;;5035483;28;20758;-75
2022/05/22 12:53:31;;;;;;;8.00;2.80;;;20.30;99.90;;;;;;5033965;28;20196;-75
2022/05/22 12:56:04;;;;;;;6.50;2.80;;;20.30;99.90;;;;;;5035381;28;20168;-75
2022/05/22 12:58:43;;;;;;;5.63;2.27;;;20.20;99.90;;;;;;5035197;28;20161;-74
2022/05/22 13:01:42;;;;;;;6.47;2.47;;;20.30;99.90;;;;;;5033871;28;20270;-75
2022/05/22 13:04:23;;;;;;;6.83;2.20;;;20.60;1.00;;;;;;5044801;28;20185;-74
2022/05/22 13:06:59;;;;;;;6.90;2.50;;;20.80;1.00;;;;;;5035385;28;20218;-75
2022/05/22 13:09:51;;;;;;;3.00;1.57;;;21.00;99.90;;;;;;5035209;28;20240;-75
2022/05/22 13:12:16;;;;;;;3.63;1.77;;;21.30;1.00;;;;;;5035191;28;20189;-75
2022/05/22 13:14:47;;;;;;;7.53;2.87;;;21.50;1.00;;;;;;5034853;28;20242;-75
2022/05/22 13:17:16;;;;;;;9.10;2.67;;;21.60;1.00;;;;;;5035053;28;20677;-74